Time;durP1;ratioP1;P1;durP2;ratioP2;P2;SDS_P1;SDS_P2;PMS_P1;PMS_P2;Temp;Humidity;BMP_temperature;BMP_pressure;BME280_temperature;BME280_humidity;BME280_pressure;Samples;Min_cycle;Max_cycle;Signal;HPM_P1;HPM_P2
2024/01/30 00:00:31;;;;;;;;;;;;;;;6.84;100.00;102613.31;5000326;28;20384;-70
2024/01/30 00:02:56;;;;;;;;;;;;;;;6.79;100.00;102617.94;4987824;28;19925;-70
2024/01/30 00:05:21;;;;;;;;;;;;;;;6.84;100.00;102613.31;5000614;28;19957;-70
2024/01/30 00:07:47;;;;;;;;;;;;;;;6.85;100.00;102617.72;4989934;28;19922;-70
2024/01/30 00:10:12;;;;;;;;;;;;;;;6.85;100.00;102607.03;4983170;28;19932;-70
2024/01/30 00:12:37;;;;;;;;;;;;;;;6.77;100.00;102615.28;4980777;28;19973;-70
2024/01/30 00:15:04;;;;;;;;;;;;;;;6.68;100.00;102623.63;4985265;28;20028;-69
2024/01/30 00:17:29;;;;;;;;;;;;;;;6.70;100.00;102619.09;4980531;28;19922;-70
2024/01/30 00:19:54;;;;;;;;;;;;;;;6.62;100.00;102616.69;4988598;28;19925;-70
2024/01/30 00:22:20;;;;;;;;;;;;;;;6.56;100.00;102616.88;4997362;28;19922;-69
2024/01/30 00:24:45;;;;;;;;;;;;;;;6.54;100.00;102610.72;4987145;28;19949;-70
2024/01/30 00:27:10;;;;;;;;;;;;;;;6.53;100.00;102616.97;4986674;28;20255;-70
2024/01/30 00:29:35;;;;;;;;;;;;;;;6.54;100.00;102616.06;4984605;28;19932;-70
2024/01/30 00:32:01;;;;;;;;;;;;;;;6.54;100.00;102608.06;4979400;28;19968;-70
2024/01/30 00:34:26;;;;;;;;;;;;;;;6.51;100.00;102611.69;4998194;28;20096;-70
2024/01/30 00:36:51;;;;;;;;;;;;;;;6.57;100.00;102602.63;4982986;28;19925;-70
2024/01/30 00:39:19;;;;;;;;;;;;;;;6.62;100.00;102606.03;4981471;28;19921;-70
2024/01/30 00:41:44;;;;;;;;;;;;;;;6.56;100.00;102609.75;4988709;28;20008;-70
2024/01/30 00:44:09;;;;;;;;;;;;;;;6.45;100.00;102603.91;4998512;28;19976;-70
2024/01/30 00:46:34;;;;;;;;;;;;;;;6.55;100.00;102596.47;4985315;28;20055;-70
2024/01/30 00:49:00;;;;;;;;;;;;;;;6.52;100.00;102600.09;4993066;28;19929;-70
2024/01/30 00:51:25;;;;;;;;;;;;;;;6.44;100.00;102605.69;5003857;28;19918;-70
2024/01/30 00:53:50;;;;;;;;;;;;;;;6.45;100.00;102603.91;4998020;28;19992;-70
2024/01/30 00:56:18;;;;;;;;;;;;;;;6.48;100.00;102598.47;5003160;28;19926;-70
2024/01/30 00:58:43;;;;;;;;;;;;;;;6.57;100.00;102603.47;4989812;28;21419;-69
2024/01/30 01:01:08;;;;;;;;;;;;;;;6.45;100.00;102599.41;4987312;28;19922;-70
2024/01/30 01:03:33;;;;;;;;;;;;;;;6.51;100.00;102603.66;4983515;28;19922;-70
2024/01/30 01:05:59;;;;;;;;;;;;;;;6.42;100.00;102602.19;4991209;28;19967;-70
2024/01/30 01:08:25;;;;;;;;;;;;;;;6.47;100.00;102593.16;4989748;28;19960;-70
2024/01/30 01:10:50;;;;;;;;;;;;;;;6.42;100.00;102596.00;4991399;28;19964;-70
2024/01/30 01:13:15;;;;;;;;;;;;;;;6.49;100.00;102589.50;4984036;28;20009;-70
2024/01/30 01:15:40;;;;;;;;;;;;;;;6.38;100.00;102586.31;4986425;28;20012;-70
2024/01/30 01:18:05;;;;;;;;;;;;;;;6.43;100.00;102581.72;4984242;28;19922;-71
2024/01/30 01:20:31;;;;;;;;;;;;;;;6.44;100.00;102587.00;5002690;28;19925;-70
2024/01/30 01:22:56;;;;;;;;;;;;;;;6.53;100.00;102576.94;4987498;28;19929;-70
2024/01/30 01:25:21;;;;;;;;;;;;;;;6.42;100.00;102577.31;4985772;28;19925;-70
2024/01/30 01:27:51;;;;;;;;;;;;;;;6.51;100.00;102579.66;4984773;28;20133;-71
2024/01/30 01:30:21;;;;;;;;;;;;;;;6.50;100.00;102583.25;4999687;28;19921;-70
2024/01/30 01:32:50;;;;;;;;;;;;;;;6.59;100.00;102571.41;4995460;28;19957;-70
2024/01/30 01:35:15;;;;;;;;;;;;;;;6.62;100.00;102565.09;4982402;28;20387;-71
2024/01/30 01:37:41;;;;;;;;;;;;;;;6.50;100.00;102572.56;4985222;28;19921;-70
2024/01/30 01:40:06;;;;;;;;;;;;;;;6.41;100.00;102552.41;4988731;28;19944;-70
2024/01/30 01:42:32;;;;;;;;;;;;;;;6.55;100.00;102567.09;4990341;28;19932;-70
2024/01/30 01:44:57;;;;;;;;;;;;;;;6.56;100.00;102564.38;4987111;28;20284;-70
2024/01/30 01:47:22;;;;;;;;;;;;;;;6.59;100.00;102561.59;4989655;28;21562;-70
2024/01/30 01:49:47;;;;;;;;;;;;;;;6.57;100.00;102558.09;5004826;28;19961;-70
2024/01/30 01:52:12;;;;;;;;;;;;;;;6.69;100.00;102564.84;4989484;28;19968;-70
2024/01/30 01:54:38;;;;;;;;;;;;;;;6.60;100.00;102555.34;4982959;28;19949;-70
2024/01/30 01:57:03;;;;;;;;;;;;;;;6.50;100.00;102556.56;4992350;28;19921;-70
2024/01/30 01:59:28;;;;;;;;;;;;;;;6.49;100.00;102553.97;5001258;28;19921;-71
2024/01/30 02:01:54;;;;;;;;;;;;;;;6.55;100.00;102557.28;4990639;28;19968;-70
2024/01/30 02:04:19;;;;;;;;;;;;;;;6.48;100.00;102550.44;5007215;28;19991;-71
2024/01/30 02:06:44;;;;;;;;;;;;;;;6.42;100.00;102556.81;4991854;28;20319;-70
2024/01/30 02:09:09;;;;;;;;;;;;;;;6.58;100.00;102554.53;4984156;28;19929;-71
2024/01/30 02:11:35;;;;;;;;;;;;;;;6.50;100.00;102558.38;4987016;28;19981;-70
2024/01/30 02:14:04;;;;;;;;;;;;;;;6.45;100.00;102564.72;4990717;28;20032;-70
2024/01/30 02:16:29;;;;;;;;;;;;;;;6.46;100.00;102560.28;4992563;28;20506;-70
2024/01/30 02:18:55;;;;;;;;;;;;;;;6.53;100.00;102558.28;4993555;28;20290;-70
2024/01/30 02:21:20;;;;;;;;;;;;;;;6.58;100.00;102554.53;5002830;28;19922;-70
2024/01/30 02:23:46;;;;;;;;;;;;;;;6.52;100.00;102553.84;4989030;28;20564;-70
2024/01/30 02:26:11;;;;;;;;;;;;;;;6.44;100.00;102548.78;4996973;28;20546;-70
2024/01/30 02:28:37;;;;;;;;;;;;;;;6.66;100.00;102558.72;5005523;28;20415;-70
2024/01/30 02:31:02;;;;;;;;;;;;;;;6.66;100.00;102556.91;4988293;28;19975;-70
2024/01/30 02:33:27;;;;;;;;;;;;;;;6.65;100.00;102544.50;4991359;28;19972;-70
2024/01/30 02:35:52;;;;;;;;;;;;;;;6.68;100.00;102543.53;4992307;28;19926;-70
2024/01/30 02:38:18;;;;;;;;;;;;;;;6.58;100.00;102543.84;4991652;28;19925;-70
2024/01/30 02:40:43;;;;;;;;;;;;;;;6.79;100.00;102543.16;4986695;28;19973;-70
2024/01/30 02:43:08;;;;;;;;;;;;;;;6.71;100.00;102533.63;4994110;28;20288;-70
2024/01/30 02:45:34;;;;;;;;;;;;;;;6.60;100.00;102534.00;4994034;28;20335;-70
2024/01/30 02:47:59;;;;;;;;;;;;;;;6.62;100.00;102546.41;4990423;28;20431;-71
2024/01/30 02:50:24;;;;;;;;;;;;;;;6.79;100.00;102541.34;4986595;28;19927;-70
2024/01/30 02:52:49;;;;;;;;;;;;;;;6.77;100.00;102542.34;4991732;28;19932;-70
2024/01/30 02:55:17;;;;;;;;;;;;;;;6.90;100.00;102533.84;4988280;28;19944;-71
2024/01/30 02:57:42;;;;;;;;;;;;;;;6.80;100.00;102545.78;4987402;28;20087;-70
2024/01/30 03:00:09;;;;;;;;;;;;;;;6.77;100.00;102537.88;4992352;28;19968;-70
2024/01/30 03:02:34;;;;;;;;;;;;;;;6.98;100.00;102535.41;4990208;28;19922;-70
2024/01/30 03:04:59;;;;;;;;;;;;;;;6.85;100.00;102524.28;4989736;28;19925;-70
2024/01/30 03:07:25;;;;;;;;;;;;;;;6.77;100.00;102527.19;4989344;28;19922;-71
2024/01/30 03:09:50;;;;;;;;;;;;;;;6.72;100.00;102531.84;5002388;28;19928;-70
2024/01/30 03:12:15;;;;;;;;;;;;;;;6.81;100.00;102522.63;4993136;28;20036;-70
2024/01/30 03:14:40;;;;;;;;;;;;;;;6.68;100.00;102525.72;4992333;28;20020;-70
2024/01/30 03:17:05;;;;;;;;;;;;;;;6.57;100.00;102517.22;4990146;28;19975;-70
2024/01/30 03:19:31;;;;;;;;;;;;;;;6.60;100.00;102517.13;5008489;28;19921;-70
2024/01/30 03:21:56;;;;;;;;;;;;;;;6.59;100.00;102521.56;4994808;28;19961;-70
2024/01/30 03:24:21;;;;;;;;;;;;;;;6.69;100.00;102518.59;4992164;28;19978;-70
2024/01/30 03:26:46;;;;;;;;;;;;;;;6.64;100.00;102499.19;4991720;28;20020;-71
2024/01/30 03:29:11;;;;;;;;;;;;;;;6.83;100.00;102515.44;4991665;28;19936;-70
2024/01/30 03:31:37;;;;;;;;;;;;;;;6.82;100.00;102509.22;4989167;28;19924;-70
2024/01/30 03:34:02;;;;;;;;;;;;;;;6.78;100.00;102507.56;4992937;28;19936;-70
2024/01/30 03:36:27;;;;;;;;;;;;;;;6.77;100.00;102502.31;5007421;28;19921;-70
2024/01/30 03:38:52;;;;;;;;;;;;;;;6.79;100.00;102501.31;4988908;28;19933;-70
2024/01/30 03:41:18;;;;;;;;;;;;;;;6.74;100.00;102496.16;4992168;28;19928;-71
2024/01/30 03:43:43;;;;;;;;;;;;;;;6.73;100.00;102496.22;4990431;28;19925;-70
2024/01/30 03:46:08;;;;;;;;;;;;;;;6.75;100.00;102483.69;4987593;28;19922;-70
2024/01/30 03:48:33;;;;;;;;;;;;;;;6.79;100.00;102485.28;4981195;28;19981;-70
2024/01/30 03:50:59;;;;;;;;;;;;;;;6.78;100.00;102485.38;4991768;28;19926;-70
2024/01/30 03:53:24;;;;;;;;;;;;;;;6.82;100.00;102495.00;4980798;28;19926;-71
2024/01/30 03:55:49;;;;;;;;;;;;;;;7.00;100.00;102491.66;4986480;28;19921;-70
2024/01/30 03:58:14;;;;;;;;;;;;;;;6.95;100.00;102488.28;4989214;28;19933;-70
2024/01/30 04:00:40;;;;;;;;;;;;;;;7.16;100.00;102497.31;4987362;28;19932;-71
2024/01/30 04:03:06;;;;;;;;;;;;;;;7.16;100.00;102493.78;4984307;28;19922;-70
2024/01/30 04:05:31;;;;;;;;;;;;;;;7.24;100.00;102501.53;5006272;28;19928;-70
2024/01/30 04:07:56;;;;;;;;;;;;;;;7.20;100.00;102495.41;4983533;28;19961;-71
2024/01/30 04:10:21;;;;;;;;;;;;;;;7.14;100.00;102511.69;4990401;28;20008;-71
2024/01/30 04:12:46;;;;;;;;;;;;;;;7.27;100.00;102506.75;4992388;28;19932;-70
2024/01/30 04:15:13;;;;;;;;;;;;;;;7.08;100.00;102503.88;4989529;28;19949;-70
2024/01/30 04:17:38;;;;;;;;;;;;;;;7.16;100.00;102508.00;4987225;28;19921;-71
2024/01/30 04:20:04;;;;;;;;;;;;;;;7.05;100.00;102512.84;4992806;28;19928;-71
2024/01/30 04:22:29;;;;;;;;;;;;;;;7.02;100.00;102504.97;4987433;28;19932;-71
2024/01/30 04:24:54;;;;;;;;;;;;;;;7.16;100.00;102505.34;4992127;28;19921;-71
2024/01/30 04:27:20;;;;;;;;;;;;;;;7.16;100.00;102500.00;4996038;28;19957;-71
2024/01/30 04:29:45;;;;;;;;;;;;;;;7.19;100.00;102499.00;5006834;28;20020;-70
2024/01/30 04:32:10;;;;;;;;;;;;;;;7.27;100.00;102486.25;4981133;28;19924;-70
2024/01/30 04:34:38;;;;;;;;;;;;;;;7.34;100.00;102486.88;4993964;28;19933;-70
2024/01/30 04:37:03;;;;;;;;;;;;;;;7.34;100.00;102487.75;5009944;28;20604;-70
2024/01/30 04:39:28;;;;;;;;;;;;;;;7.11;100.00;102490.41;4989857;28;20376;-71
2024/01/30 04:41:54;;;;;;;;;;;;;;;7.20;100.00;102484.72;5011915;28;20300;-71
2024/01/30 04:44:19;;;;;;;;;;;;;;;7.34;100.00;102489.53;4993143;28;20364;-71
2024/01/30 04:46:44;;;;;;;;;;;;;;;7.39;100.00;102479.56;5009391;28;19925;-71
2024/01/30 04:49:10;;;;;;;;;;;;;;;7.41;100.00;102487.53;4990798;28;19931;-71
2024/01/30 04:51:35;;;;;;;;;;;;;;;7.33;100.00;102472.66;4994903;28;19928;-70
2024/01/30 04:54:01;;;;;;;;;;;;;;;7.34;100.00;102469.06;4987298;28;19925;-70
2024/01/30 04:56:26;;;;;;;;;;;;;;;7.42;100.00;102463.41;5006308;28;19921;-70
2024/01/30 04:58:51;;;;;;;;;;;;;;;7.36;100.00;102468.97;5010151;28;20115;-70
2024/01/30 05:01:16;;;;;;;;;;;;;;;7.33;100.00;102456.63;4992791;28;19926;-71
2024/01/30 05:03:42;;;;;;;;;;;;;;;7.42;100.00;102460.75;5005155;28;19921;-70
2024/01/30 05:06:07;;;;;;;;;;;;;;;7.35;100.00;102472.59;4986518;28;19956;-71
2024/01/30 05:08:32;;;;;;;;;;;;;;;7.31;100.00;102470.94;4984807;28;19960;-71
2024/01/30 05:11:00;;;;;;;;;;;;;;;7.39;100.00;102465.34;4994046;28;19932;-71
2024/01/30 05:13:25;;;;;;;;;;;;;;;7.42;100.00;102471.44;4988717;28;20398;-71
2024/01/30 05:15:50;;;;;;;;;;;;;;;7.40;100.00;102473.28;4990362;28;19921;-72
2024/01/30 05:18:15;;;;;;;;;;;;;;;7.25;100.00;102465.88;5001245;28;20435;-71
2024/01/30 05:20:40;;;;;;;;;;;;;;;7.31;100.00;102479.84;4984959;28;20373;-71
2024/01/30 05:23:06;;;;;;;;;;;;;;;7.25;100.00;102469.38;4986293;28;19928;-71
2024/01/30 05:25:31;;;;;;;;;;;;;;;7.32;100.00;102478.94;5002902;28;20443;-70
2024/01/30 05:27:56;;;;;;;;;;;;;;;7.31;100.00;102478.97;4988602;28;20436;-71
2024/01/30 05:30:21;;;;;;;;;;;;;;;7.19;100.00;102480.31;4988802;28;19932;-71
2024/01/30 05:32:47;;;;;;;;;;;;;;;7.27;100.00;102485.38;4982721;28;20066;-71
2024/01/30 05:35:12;;;;;;;;;;;;;;;7.26;100.00;102475.63;4989268;28;20517;-71
2024/01/30 05:37:37;;;;;;;;;;;;;;;7.36;100.00;102477.00;4980804;28;20019;-71
2024/01/30 05:40:02;;;;;;;;;;;;;;;7.32;100.00;102481.59;4988553;28;20521;-70
2024/01/30 05:42:28;;;;;;;;;;;;;;;7.27;100.00;102482.72;4996765;28;20391;-71
2024/01/30 05:44:53;;;;;;;;;;;;;;;7.28;100.00;102477.28;4996494;28;19929;-70
2024/01/30 05:47:18;;;;;;;;;;;;;;;7.24;100.00;102477.47;4989924;28;19914;-71
2024/01/30 05:49:43;;;;;;;;;;;;;;;7.35;100.00;102481.50;4993290;28;20280;-71
2024/01/30 05:52:09;;;;;;;;;;;;;;;7.48;100.00;102471.19;4988310;28;19921;-71
2024/01/30 05:54:34;;;;;;;;;;;;;;;7.41;100.00;102472.34;5004982;28;19932;-71
2024/01/30 05:57:00;;;;;;;;;;;;;;;7.46;100.00;102472.16;4989865;28;19921;-71
2024/01/30 05:59:25;;;;;;;;;;;;;;;7.55;100.00;102474.50;4991493;28;19917;-71
2024/01/30 06:01:50;;;;;;;;;;;;;;;7.54;100.00;102478.09;5006072;28;20420;-71
2024/01/30 06:04:15;;;;;;;;;;;;;;;7.58;100.00;102479.72;4995512;28;20436;-71
2024/01/30 06:06:41;;;;;;;;;;;;;;;7.52;100.00;102474.59;4994256;28;20114;-71
2024/01/30 06:09:08;;;;;;;;;;;;;;;7.42;100.00;102476.78;4983898;28;19921;-71
2024/01/30 06:11:34;;;;;;;;;;;;;;;7.47;100.00;102471.25;4986591;28;20318;-71
2024/01/30 06:13:59;;;;;;;;;;;;;;;7.62;100.00;102470.66;4994474;28;19925;-71
2024/01/30 06:16:24;;;;;;;;;;;;;;;7.66;100.00;102476.75;5005017;28;19948;-71
2024/01/30 06:18:49;;;;;;;;;;;;;;;7.75;100.00;102479.06;4993806;28;19929;-71
2024/01/30 06:21:15;;;;;;;;;;;;;;;7.77;100.00;102477.22;4994122;28;19926;-71
2024/01/30 06:23:40;;;;;;;;;;;;;;;7.68;100.00;102482.06;5004578;28;19922;-71
2024/01/30 06:26:06;;;;;;;;;;;;;;;7.75;100.00;102478.19;4989596;28;19922;-71
2024/01/30 06:28:31;;;;;;;;;;;;;;;8.04;100.00;102471.69;4998217;28;19921;-70
2024/01/30 06:30:56;;;;;;;;;;;;;;;7.74;100.00;102488.03;5005822;28;19928;-71
2024/01/30 06:33:22;;;;;;;;;;;;;;;7.59;100.00;102483.25;5007677;28;19929;-71
2024/01/30 06:35:47;;;;;;;;;;;;;;;7.69;100.00;102490.00;4988608;28;19926;-71
2024/01/30 06:38:13;;;;;;;;;;;;;;;7.73;100.00;102488.06;4993840;28;20122;-71
2024/01/30 06:40:38;;;;;;;;;;;;;;;7.80;100.00;102482.44;4973486;28;20379;-71
2024/01/30 06:43:04;;;;;;;;;;;;;;;7.75;100.00;102486.19;4989291;28;20032;-71
2024/01/30 06:45:29;;;;;;;;;;;;;;;7.72;100.00;102487.22;4989037;28;20308;-70
2024/01/30 06:47:55;;;;;;;;;;;;;;;7.56;100.00;102486.94;5001856;28;20527;-71
2024/01/30 06:50:20;;;;;;;;;;;;;;;7.52;100.00;102487.13;4986590;28;19921;-71
2024/01/30 06:52:45;;;;;;;;;;;;;;;7.72;100.00;102484.53;4995451;28;19969;-71
2024/01/30 06:55:10;;;;;;;;;;;;;;;7.55;100.00;102492.34;4988269;28;19921;-71
2024/01/30 06:57:36;;;;;;;;;;;;;;;7.50;100.00;102498.75;4992260;28;19922;-71
2024/01/30 07:00:01;;;;;;;;;;;;;;;7.67;100.00;102493.69;4993078;28;19925;-71
2024/01/30 07:02:26;;;;;;;;;;;;;;;7.60;100.00;102501.94;5002402;28;19925;-70
2024/01/30 07:04:51;;;;;;;;;;;;;;;7.67;100.00;102502.56;4988424;28;20330;-70
2024/01/30 07:07:17;;;;;;;;;;;;;;;7.60;100.00;102509.94;5008463;28;19909;-71
2024/01/30 07:09:42;;;;;;;;;;;;;;;7.62;100.00;102505.41;4994193;28;20019;-70
2024/01/30 07:12:07;;;;;;;;;;;;;;;7.57;100.00;102507.38;4987563;28;19913;-70
2024/01/30 07:14:33;;;;;;;;;;;;;;;7.54;100.00;102502.16;4992102;28;19925;-70
2024/01/30 07:16:58;;;;;;;;;;;;;;;7.65;100.00;102501.75;4979761;28;19921;-70
2024/01/30 07:19:23;;;;;;;;;;;;;;;7.66;100.00;102519.53;5007828;28;20023;-70
2024/01/30 07:21:48;;;;;;;;;;;;;;;7.54;100.00;102522.69;4990059;28;20020;-71
2024/01/30 07:24:13;;;;;;;;;;;;;;;7.77;100.00;102520.00;4987792;28;19992;-71
2024/01/30 07:26:39;;;;;;;;;;;;;;;7.82;100.00;102525.16;4991783;28;19921;-70
2024/01/30 07:29:04;;;;;;;;;;;;;;;7.84;100.00;102533.09;4977008;28;19928;-70
2024/01/30 07:31:29;;;;;;;;;;;;;;;7.72;100.00;102538.00;4987030;28;19946;-71
2024/01/30 07:33:54;;;;;;;;;;;;;;;7.92;100.00;102542.59;4992723;28;19975;-71
2024/01/30 07:36:20;;;;;;;;;;;;;;;7.92;100.00;102531.00;5002207;28;19927;-71
2024/01/30 07:38:45;;;;;;;;;;;;;;;7.70;100.00;102515.81;4990458;28;19917;-71
2024/01/30 07:41:10;;;;;;;;;;;;;;;7.87;100.00;102530.31;4995360;28;20375;-71
2024/01/30 07:43:35;;;;;;;;;;;;;;;7.91;100.00;102532.81;4996612;28;19921;-71
2024/01/30 07:46:02;;;;;;;;;;;;;;;7.85;100.00;102535.72;4988708;28;19928;-71
2024/01/30 07:48:27;;;;;;;;;;;;;;;8.05;100.00;102536.72;4994298;28;19931;-71
2024/01/30 07:50:53;;;;;;;;;;;;;;;8.02;100.00;102544.88;4995210;28;20352;-71
2024/01/30 07:53:18;;;;;;;;;;;;;;;7.94;100.00;102543.41;4996790;28;20428;-70
2024/01/30 07:55:46;;;;;;;;;;;;;;;7.99;100.00;102545.00;4997872;28;20279;-71
2024/01/30 07:58:11;;;;;;;;;;;;;;;7.92;100.00;102547.94;4997296;28;20222;-71
2024/01/30 08:00:37;;;;;;;;;;;;;;;8.00;100.00;102547.63;4990765;28;20175;-71
2024/01/30 08:03:02;;;;;;;;;;;;;;;8.05;100.00;102555.47;5006295;28;19918;-71
2024/01/30 08:05:27;;;;;;;;;;;;;;;7.98;100.00;102559.31;4999476;28;19927;-71
2024/01/30 08:07:52;;;;;;;;;;;;;;;7.91;100.00;102553.31;4993671;28;19992;-71
2024/01/30 08:10:18;;;;;;;;;;;;;;;7.93;100.00;102554.13;4997621;28;19921;-71
2024/01/30 08:12:44;;;;;;;;;;;;;;;8.05;100.00;102561.69;4996511;28;19930;-71
2024/01/30 08:15:09;;;;;;;;;;;;;;;8.08;100.00;102566.03;4993820;28;19929;-71
2024/01/30 08:17:34;;;;;;;;;;;;;;;8.26;100.00;102561.75;4993422;28;19921;-70
2024/01/30 08:19:59;;;;;;;;;;;;;;;8.30;100.00;102570.53;4995751;28;19921;-71
2024/01/30 08:22:25;;;;;;;;;;;;;;;8.23;100.00;102567.22;5008822;28;19968;-71
2024/01/30 08:24:50;;;;;;;;;;;;;;;8.34;100.00;102566.78;4998435;28;19961;-71
2024/01/30 08:27:15;;;;;;;;;;;;;;;8.55;100.00;102557.06;5019246;28;20024;-70
2024/01/30 08:29:40;;;;;;;;;;;;;;;8.44;100.00;102567.28;4996507;28;20234;-71
2024/01/30 08:32:06;;;;;;;;;;;;;;;8.59;100.00;102566.69;4998236;28;19928;-71
2024/01/30 08:34:31;;;;;;;;;;;;;;;8.76;100.00;102565.09;4996653;28;19932;-70
2024/01/30 08:36:57;;;;;;;;;;;;;;;8.65;100.00;102561.06;4994594;28;19964;-70
2024/01/30 08:39:22;;;;;;;;;;;;;;;8.65;100.00;102561.06;5005175;28;19921;-70
2024/01/30 08:41:47;;;;;;;;;;;;;;;8.54;100.00;102558.84;5009186;28;19960;-71
2024/01/30 08:44:12;;;;;;;;;;;;;;;8.69;100.00;102562.69;4994346;28;19921;-71
2024/01/30 08:46:38;;;;;;;;;;;;;;;8.71;100.00;102573.34;5011837;28;19965;-71
2024/01/30 08:49:06;;;;;;;;;;;;;;;8.80;100.00;102562.22;4996689;28;20017;-71
2024/01/30 08:51:31;;;;;;;;;;;;;;;8.79;100.00;102564.97;4999253;28;19959;-71
2024/01/30 08:53:56;;;;;;;;;;;;;;;8.87;100.00;102567.31;4992153;28;19929;-71
2024/01/30 08:56:22;;;;;;;;;;;;;;;8.89;100.00;102566.31;5008583;28;19921;-70
2024/01/30 08:58:47;;;;;;;;;;;;;;;9.04;100.00;102574.63;4995205;28;19961;-71
2024/01/30 09:01:12;;;;;;;;;;;;;;;9.02;100.00;102566.66;4999809;28;19922;-71
2024/01/30 09:03:39;;;;;;;;;;;;;;;9.06;100.00;102560.22;4990095;28;20344;-71
2024/01/30 09:06:08;;;;;;;;;;;;;;;8.98;100.00;102562.38;4978897;28;20391;-71
2024/01/30 09:08:33;;;;;;;;;;;;;;;9.07;100.00;102559.28;4997410;28;19983;-71
2024/01/30 09:10:58;;;;;;;;;;;;;;;9.10;100.00;102560.97;4997205;28;20368;-71
2024/01/30 09:13:24;;;;;;;;;;;;;;;9.05;100.00;102561.16;4993214;28;20471;-72
2024/01/30 09:15:49;;;;;;;;;;;;;;;9.22;100.00;102572.97;5006966;28;20443;-71
2024/01/30 09:18:14;;;;;;;;;;;;;;;9.18;100.00;102566.84;4980009;28;19926;-71
2024/01/30 09:20:39;;;;;;;;;;;;;;;9.12;100.00;102576.03;4993800;28;20003;-71
2024/01/30 09:23:04;;;;;;;;;;;;;;;9.27;100.00;102582.53;4993584;28;20496;-71
2024/01/30 09:25:30;;;;;;;;;;;;;;;9.34;100.00;102575.06;4996023;28;19943;-71
2024/01/30 09:27:55;;;;;;;;;;;;;;;9.46;100.00;102581.69;4995330;28;19918;-71
2024/01/30 09:30:20;;;;;;;;;;;;;;;9.44;100.00;102584.47;4993126;28;19921;-71
2024/01/30 09:32:45;;;;;;;;;;;;;;;9.48;100.00;102585.19;4996438;28;19929;-71
2024/01/30 09:35:10;;;;;;;;;;;;;;;9.68;100.00;102586.06;4996042;28;19926;-70
2024/01/30 09:37:36;;;;;;;;;;;;;;;9.50;100.00;102588.66;4994651;28;20764;-71
2024/01/30 09:40:01;;;;;;;;;;;;;;;9.61;100.00;102588.16;5008210;28;20423;-71
2024/01/30 09:42:28;;;;;;;;;;;;;;;9.61;100.00;102585.50;4993375;28;19968;-71
2024/01/30 09:44:53;;;;;;;;;;;;;;;9.47;100.00;102596.00;5009037;28;19926;-71
2024/01/30 09:47:18;;;;;;;;;;;;;;;9.47;100.00;102588.78;4993403;28;20562;-71
2024/01/30 09:49:43;;;;;;;;;;;;;;;9.48;100.00;102601.28;4992157;28;20332;-70
2024/01/30 09:52:08;;;;;;;;;;;;;;;9.64;100.00;102597.91;5015249;28;20429;-71
2024/01/30 09:54:34;;;;;;;;;;;;;;;9.67;100.00;102601.31;4996672;28;20478;-70
2024/01/30 09:56:59;;;;;;;;;;;;;;;9.70;100.00;102598.50;4994244;28;20420;-70
2024/01/30 09:59:24;;;;;;;;;;;;;;;9.66;100.00;102593.34;4995235;28;20414;-70
2024/01/30 10:01:50;;;;;;;;;;;;;;;9.75;100.00;102600.94;4993729;28;19929;-70
2024/01/30 10:04:15;;;;;;;;;;;;;;;9.85;100.00;102602.28;4993590;28;19925;-70
2024/01/30 10:06:40;;;;;;;;;;;;;;;9.79;100.00;102599.88;4997358;28;19921;-70
2024/01/30 10:09:05;;;;;;;;;;;;;;;10.00;100.00;102603.38;4991147;28;19968;-70
2024/01/30 10:11:30;;;;;;;;;;;;;;;9.92;100.00;102600.16;4994004;28;20032;-71
2024/01/30 10:13:56;;;;;;;;;;;;;;;9.82;100.00;102580.06;4979825;28;19925;-71
2024/01/30 10:16:21;;;;;;;;;;;;;;;9.96;100.00;102615.19;4994715;28;19928;-70
2024/01/30 10:18:47;;;;;;;;;;;;;;;9.96;100.00;102604.44;4993029;28;19929;-71
2024/01/30 10:21:12;;;;;;;;;;;;;;;9.98;100.00;102607.06;4994145;28;20334;-71
2024/01/30 10:23:38;;;;;;;;;;;;;;;9.99;100.00;102608.78;4994315;28;20372;-71
2024/01/30 10:26:07;;;;;;;;;;;;;;;10.05;100.00;102608.50;4993421;28;20168;-71
2024/01/30 10:28:32;;;;;;;;;;;;;;;10.13;100.00;102606.34;4995419;28;20414;-70
2024/01/30 10:31:00;;;;;;;;;;;;;;;10.11;100.00;102618.06;4996002;28;19959;-71
2024/01/30 10:33:27;;;;;;;;;;;;;;;10.17;100.00;102615.09;4989788;28;20012;-70
2024/01/30 10:35:52;;;;;;;;;;;;;;;10.18;100.00;102619.53;4995469;28;19925;-70
2024/01/30 10:38:18;;;;;;;;;;;;;;;10.20;100.00;102609.59;5010910;28;20435;-70
2024/01/30 10:40:43;;;;;;;;;;;;;;;10.35;100.00;102613.34;4993510;28;20447;-71
2024/01/30 10:43:08;;;;;;;;;;;;;;;10.52;100.00;102611.69;4992820;28;20052;-71
2024/01/30 10:45:33;;;;;;;;;;;;;;;10.53;100.00;102613.41;5009505;28;20330;-70
2024/01/30 10:47:59;;;;;;;;;;;;;;;10.61;100.00;102605.84;4990390;28;19933;-70
2024/01/30 10:50:25;;;;;;;;;;;;;;;10.71;100.00;102607.16;4989167;28;19976;-71
2024/01/30 10:52:50;;;;;;;;;;;;;;;10.75;100.00;102621.28;4995108;28;19972;-71
2024/01/30 10:55:16;;;;;;;;;;;;;;;10.78;100.00;102621.13;4987209;28;19925;-71
2024/01/30 10:57:41;;;;;;;;;;;;;;;10.82;100.00;102611.09;4992365;28;20407;-71
2024/01/30 11:00:10;;;;;;;;;;;;;;;10.85;100.00;102603.78;4993001;28;19925;-71
2024/01/30 11:02:45;;;;;;;;;;;;;;;10.83;100.00;102616.41;5003073;28;20236;-71
2024/01/30 11:05:10;;;;;;;;;;;;;;;10.83;100.00;102604.78;4995793;28;20059;-71
2024/01/30 11:07:36;;;;;;;;;;;;;;;10.82;100.00;102609.28;4987085;28;19922;-71
2024/01/30 11:10:06;;;;;;;;;;;;;;;10.89;100.00;102601.78;4975004;28;19921;-71
2024/01/30 11:12:35;;;;;;;;;;;;;;;11.01;100.00;102613.72;4993094;28;19922;-71
2024/01/30 11:15:04;;;;;;;;;;;;;;;10.95;100.00;102585.34;4992494;28;20367;-71
2024/01/30 11:17:39;;;;;;;;;;;;;;;11.06;100.00;102619.72;5008997;28;19959;-71
2024/01/30 11:20:04;;;;;;;;;;;;;;;10.99;100.00;102615.63;4993044;28;19932;-71
2024/01/30 11:22:30;;;;;;;;;;;;;;;10.97;100.00;102604.97;4991511;28;19921;-71
2024/01/30 11:24:55;;;;;;;;;;;;;;;11.04;100.00;102605.50;4996165;28;20451;-71
2024/01/30 11:27:20;;;;;;;;;;;;;;;10.96;100.00;102605.91;4989964;28;19921;-71
2024/01/30 11:29:49;;;;;;;;;;;;;;;10.93;100.00;102619.50;4993851;28;19968;-72
2024/01/30 11:32:16;;;;;;;;;;;;;;;11.05;100.00;102608.09;5002415;28;19930;-71
2024/01/30 11:34:42;;;;;;;;;;;;;;;10.96;100.00;102589.78;5006733;28;19925;-71
2024/01/30 11:37:09;;;;;;;;;;;;;;;10.96;100.00;102597.84;4987023;28;20295;-71
2024/01/30 11:39:34;;;;;;;;;;;;;;;11.04;100.00;102600.13;4993846;28;19921;-71
2024/01/30 11:41:59;;;;;;;;;;;;;;;11.74;100.00;102600.00;4994078;28;20462;-70
2024/01/30 11:44:25;;;;;;;;;;;;;;;12.01;100.00;102607.53;5009826;28;19996;-71
2024/01/30 11:46:51;;;;;;;;;;;;;;;12.41;100.00;102602.59;4990601;28;19925;-72
2024/01/30 11:49:19;;;;;;;;;;;;;;;12.34;100.00;102597.63;4992263;28;19925;-71
2024/01/30 11:51:48;;;;;;;;;;;;;;;12.75;100.00;102583.59;4992756;28;21342;-72
2024/01/30 11:54:13;;;;;;;;;;;;;;;13.41;100.00;102589.50;4988146;28;19928;-72
2024/01/30 11:56:39;;;;;;;;;;;;;;;13.49;100.00;102589.06;4995724;28;20135;-71
2024/01/30 11:59:04;;;;;;;;;;;;;;;14.04;100.00;102592.75;4991312;28;20018;-71
2024/01/30 12:01:29;;;;;;;;;;;;;;;13.72;100.00;102586.72;5004129;28;20410;-71
2024/01/30 12:03:56;;;;;;;;;;;;;;;12.88;100.00;102581.88;5005248;28;20063;-73
2024/01/30 12:06:22;;;;;;;;;;;;;;;12.83;100.00;102580.41;4986021;28;19922;-71
2024/01/30 12:08:57;;;;;;;;;;;;;;;12.56;100.00;102589.19;4987237;28;19921;-71
2024/01/30 12:11:22;;;;;;;;;;;;;;;12.19;100.00;102612.81;4994398;28;19921;-72
2024/01/30 12:13:47;;;;;;;;;;;;;;;12.22;100.00;102599.19;4991093;28;19992;-72
2024/01/30 12:16:13;;;;;;;;;;;;;;;11.99;100.00;102601.38;4988105;28;20106;-73
2024/01/30 12:18:38;;;;;;;;;;;;;;;12.55;100.00;102591.03;5004693;28;19996;-72
2024/01/30 12:21:04;;;;;;;;;;;;;;;13.20;100.00;102592.53;4981273;28;20012;-72
2024/01/30 12:23:29;;;;;;;;;;;;;;;12.80;100.00;102611.13;4990732;28;20044;-71
2024/01/30 12:25:54;;;;;;;;;;;;;;;12.82;100.00;102590.34;4994898;28;19965;-71